Montreal (YUL/CYUL)

Information

Location
Montreal, QB, Canada
Local Time
16:37 / 4:37 pm
GMT Time
20:37 / 8:37 pm
Gates
77
No FAA reported delays
METAR CYUL 232000Z 14011KT 30SM FEW180 BKN240 21/11 A3004 RMK AC2CI5 SLP174 DENSITY ALT 700FT
TAF TAF CYUL 231738Z 2318/2418 15010KT P6SM BKN250 BECMG 2319/2321 14015KT BECMG 2402/2404 12012KT FM240800 12010KT P6SM SCT030 OVC220 FM241200 12012G22KT P6SM -SHRA SCT030 BKN100 FM241700 16015G30KT P6SM -SHRA BKN030 RMK NXT FCST BY 232100Z